sensor_id;sensor_type;location;lat;lon;timestamp;pressure;altitude;pressure_sealevel;temperature;humidity
78149;BME280;67396;42.664;23.382;2023-11-18T00:02:22;94248.09;;;5.29;88.01
78149;BME280;67396;42.664;23.382;2023-11-18T00:04:49;94243.41;;;5.26;87.73
78149;BME280;67396;42.664;23.382;2023-11-18T00:07:15;94243.78;;;5.24;87.82
78149;BME280;67396;42.664;23.382;2023-11-18T00:09:40;94258.47;;;5.20;88.09
78149;BME280;67396;42.664;23.382;2023-11-18T00:12:08;94253.09;;;5.23;88.43
78149;BME280;67396;42.664;23.382;2023-11-18T00:14:33;94235.28;;;5.29;86.87
78149;BME280;67396;42.664;23.382;2023-11-18T00:16:58;94260.97;;;5.32;86.08
78149;BME280;67396;42.664;23.382;2023-11-18T00:19:24;94267.94;;;5.29;85.09
78149;BME280;67396;42.664;23.382;2023-11-18T00:21:50;94282.94;;;5.20;86.28
78149;BME280;67396;42.664;23.382;2023-11-18T00:24:15;94286.41;;;5.17;86.35
78149;BME280;67396;42.664;23.382;2023-11-18T00:26:40;94285.56;;;5.13;85.57
78149;BME280;67396;42.664;23.382;2023-11-18T00:29:06;94270.47;;;5.15;85.72
78149;BME280;67396;42.664;23.382;2023-11-18T00:31:31;94262.13;;;5.05;85.65
78149;BME280;67396;42.664;23.382;2023-11-18T00:33:57;94253.56;;;5.03;87.08
78149;BME280;67396;42.664;23.382;2023-11-18T00:36:22;94244.63;;;5.02;87.22
78149;BME280;67396;42.664;23.382;2023-11-18T00:38:48;94261.41;;;5.08;85.90
78149;BME280;67396;42.664;23.382;2023-11-18T00:41:14;94254.81;;;5.09;85.13
78149;BME280;67396;42.664;23.382;2023-11-18T00:43:39;94252.38;;;5.00;85.65
78149;BME280;67396;42.664;23.382;2023-11-18T00:46:05;94251.97;;;5.02;85.82
78149;BME280;67396;42.664;23.382;2023-11-18T00:48:32;94248.13;;;5.03;85.69
78149;BME280;67396;42.664;23.382;2023-11-18T00:50:57;94248.91;;;5.03;85.39
78149;BME280;67396;42.664;23.382;2023-11-18T00:53:23;94250.53;;;5.08;84.66
78149;BME280;67396;42.664;23.382;2023-11-18T00:55:49;94248.25;;;5.10;84.74
78149;BME280;67396;42.664;23.382;2023-11-18T00:58:15;94248.13;;;5.03;84.84
78149;BME280;67396;42.664;23.382;2023-11-18T01:00:40;94255.72;;;4.90;85.83
78149;BME280;67396;42.664;23.382;2023-11-18T01:03:06;94253.41;;;4.92;85.73
78149;BME280;67396;42.664;23.382;2023-11-18T01:05:31;94259.31;;;4.98;84.59
78149;BME280;67396;42.664;23.382;2023-11-18T01:07:59;94267.38;;;4.90;84.92
78149;BME280;67396;42.664;23.382;2023-11-18T01:10:25;94272.19;;;5.01;84.25
78149;BME280;67396;42.664;23.382;2023-11-18T01:12:50;94261.94;;;4.90;84.63
78149;BME280;67396;42.664;23.382;2023-11-18T01:15:16;94272.84;;;4.94;85.04
78149;BME280;67396;42.664;23.382;2023-11-18T01:17:42;94269.75;;;4.92;84.12
78149;BME280;67396;42.664;23.382;2023-11-18T01:20:07;94281.16;;;4.78;84.15
78149;BME280;67396;42.664;23.382;2023-11-18T01:22:37;94260.91;;;4.76;85.09
78149;BME280;67396;42.664;23.382;2023-11-18T01:25:04;94286.06;;;4.69;85.65
78149;BME280;67396;42.664;23.382;2023-11-18T01:27:29;94289.69;;;4.77;84.31
78149;BME280;67396;42.664;23.382;2023-11-18T01:29:55;94270.25;;;4.75;85.71
78149;BME280;67396;42.664;23.382;2023-11-18T01:32:20;94270.44;;;4.63;85.67
78149;BME280;67396;42.664;23.382;2023-11-18T01:34:46;94275.41;;;4.57;86.50
78149;BME280;67396;42.664;23.382;2023-11-18T01:37:16;94281.56;;;4.54;86.42
78149;BME280;67396;42.664;23.382;2023-11-18T01:39:41;94294.34;;;4.53;87.62
78149;BME280;67396;42.664;23.382;2023-11-18T01:42:07;94293.75;;;4.64;85.66
78149;BME280;67396;42.664;23.382;2023-11-18T01:44:32;94280.84;;;4.57;86.80
78149;BME280;67396;42.664;23.382;2023-11-18T01:47:01;94280.69;;;4.50;86.06
78149;BME280;67396;42.664;23.382;2023-11-18T01:49:31;94287.69;;;4.51;86.32
78149;BME280;67396;42.664;23.382;2023-11-18T01:51:57;94277.84;;;4.43;86.70
78149;BME280;67396;42.664;23.382;2023-11-18T01:54:26;94273.53;;;4.38;85.48
78149;BME280;67396;42.664;23.382;2023-11-18T01:56:53;94280.66;;;4.46;86.02
78149;BME280;67396;42.664;23.382;2023-11-18T01:59:19;94272.94;;;4.48;85.81
78149;BME280;67396;42.664;23.382;2023-11-18T02:01:50;94268.44;;;4.37;85.28
78149;BME280;67396;42.664;23.382;2023-11-18T02:04:17;94266.56;;;4.41;85.03
78149;BME280;67396;42.664;23.382;2023-11-18T02:06:45;94276.53;;;4.33;84.76
78149;BME280;67396;42.664;23.382;2023-11-18T02:09:11;94269.41;;;4.25;84.58
78149;BME280;67396;42.664;23.382;2023-11-18T02:11:56;94275.63;;;4.26;84.39
78149;BME280;67396;42.664;23.382;2023-11-18T02:14:27;94282.50;;;4.20;84.00
78149;BME280;67396;42.664;23.382;2023-11-18T02:16:56;94294.28;;;4.27;83.80
78149;BME280;67396;42.664;23.382;2023-11-18T02:19:25;94272.06;;;4.22;83.01
78149;BME280;67396;42.664;23.382;2023-11-18T02:21:55;94276.56;;;4.14;82.86
78149;BME280;67396;42.664;23.382;2023-11-18T02:24:29;94286.09;;;4.04;81.83
78149;BME280;67396;42.664;23.382;2023-11-18T02:27:00;94280.44;;;4.13;82.56
78149;BME280;67396;42.664;23.382;2023-11-18T02:29:29;94270.06;;;4.19;81.03
78149;BME280;67396;42.664;23.382;2023-11-18T02:31:59;94265.34;;;4.15;81.26
78149;BME280;67396;42.664;23.382;2023-11-18T02:34:30;94260.50;;;4.05;80.79
78149;BME280;67396;42.664;23.382;2023-11-18T02:36:58;94271.75;;;4.04;81.39
78149;BME280;67396;42.664;23.382;2023-11-18T02:39:36;94267.09;;;4.04;80.34
78149;BME280;67396;42.664;23.382;2023-11-18T02:42:07;94257.63;;;3.95;80.90
78149;BME280;67396;42.664;23.382;2023-11-18T02:44:35;94270.31;;;3.91;79.84
78149;BME280;67396;42.664;23.382;2023-11-18T02:47:01;94273.53;;;3.96;79.51
78149;BME280;67396;42.664;23.382;2023-11-18T02:49:26;94278.78;;;3.86;80.25
78149;BME280;67396;42.664;23.382;2023-11-18T02:51:53;94288.41;;;3.83;80.23
78149;BME280;67396;42.664;23.382;2023-11-18T02:54:18;94296.47;;;3.79;79.65
78149;BME280;67396;42.664;23.382;2023-11-18T02:56:45;94303.56;;;3.84;80.34
78149;BME280;67396;42.664;23.382;2023-11-18T02:59:10;94302.63;;;3.76;79.93
78149;BME280;67396;42.664;23.382;2023-11-18T03:01:36;94304.13;;;3.74;79.32
78149;BME280;67396;42.664;23.382;2023-11-18T03:04:04;94293.41;;;3.81;78.48
78149;BME280;67396;42.664;23.382;2023-11-18T03:06:30;94306.41;;;3.72;79.07
78149;BME280;67396;42.664;23.382;2023-11-18T03:08:57;94310.13;;;3.64;80.19
78149;BME280;67396;42.664;23.382;2023-11-18T03:11:22;94308.41;;;3.56;78.99
78149;BME280;67396;42.664;23.382;2023-11-18T03:13:48;94316.09;;;3.54;79.50
78149;BME280;67396;42.664;23.382;2023-11-18T03:16:14;94329.97;;;3.49;79.53
78149;BME280;67396;42.664;23.382;2023-11-18T03:18:40;94327.59;;;3.47;79.97
78149;BME280;67396;42.664;23.382;2023-11-18T03:21:13;94348.50;;;3.47;79.52
78149;BME280;67396;42.664;23.382;2023-11-18T03:23:39;94337.91;;;3.57;79.22
78149;BME280;67396;42.664;23.382;2023-11-18T03:26:06;94350.97;;;3.52;78.33
78149;BME280;67396;42.664;23.382;2023-11-18T03:28:32;94345.81;;;3.47;79.01
78149;BME280;67396;42.664;23.382;2023-11-18T03:30:57;94345.53;;;3.52;79.09
78149;BME280;67396;42.664;23.382;2023-11-18T03:33:23;94343.47;;;3.29;79.00
78149;BME280;67396;42.664;23.382;2023-11-18T03:35:49;94346.63;;;3.31;79.13
78149;BME280;67396;42.664;23.382;2023-11-18T03:38:15;94357.94;;;3.33;78.81
78149;BME280;67396;42.664;23.382;2023-11-18T03:40:43;94358.44;;;3.39;78.21
78149;BME280;67396;42.664;23.382;2023-11-18T03:43:10;94338.34;;;3.24;78.20
78149;BME280;67396;42.664;23.382;2023-11-18T03:45:38;94364.53;;;3.36;78.43
78149;BME280;67396;42.664;23.382;2023-11-18T03:48:04;94347.97;;;3.22;78.87
78149;BME280;67396;42.664;23.382;2023-11-18T03:50:29;94341.47;;;3.26;78.12
78149;BME280;67396;42.664;23.382;2023-11-18T03:52:55;94363.88;;;3.23;77.79
78149;BME280;67396;42.664;23.382;2023-11-18T03:55:20;94352.09;;;3.16;78.82
78149;BME280;67396;42.664;23.382;2023-11-18T03:57:46;94356.38;;;3.01;78.71
78149;BME280;67396;42.664;23.382;2023-11-18T04:00:15;94342.41;;;2.99;78.61
78149;BME280;67396;42.664;23.382;2023-11-18T04:02:41;94341.44;;;2.91;77.49
78149;BME280;67396;42.664;23.382;2023-11-18T04:05:06;94350.78;;;2.94;78.22
78149;BME280;67396;42.664;23.382;2023-11-18T04:07:33;94364.78;;;2.96;77.97
78149;BME280;67396;42.664;23.382;2023-11-18T04:09:59;94373.16;;;2.91;78.28
78149;BME280;67396;42.664;23.382;2023-11-18T04:12:25;94366.97;;;2.90;77.55
78149;BME280;67396;42.664;23.382;2023-11-18T04:14:52;94368.13;;;2.89;77.23
78149;BME280;67396;42.664;23.382;2023-11-18T04:17:18;94377.38;;;2.88;77.37
78149;BME280;67396;42.664;23.382;2023-11-18T04:19:44;94363.50;;;2.90;77.63
78149;BME280;67396;42.664;23.382;2023-11-18T04:22:13;94361.38;;;2.83;77.23
78149;BME280;67396;42.664;23.382;2023-11-18T04:24:39;94369.09;;;2.81;76.85
78149;BME280;67396;42.664;23.382;2023-11-18T04:27:05;94363.38;;;3.02;79.38
78149;BME280;67396;42.664;23.382;2023-11-18T04:29:31;94375.72;;;3.15;76.52
78149;BME280;67396;42.664;23.382;2023-11-18T04:31:57;94385.41;;;3.32;75.53
78149;BME280;67396;42.664;23.382;2023-11-18T04:34:25;94379.88;;;3.28;74.96
78149;BME280;67396;42.664;23.382;2023-11-18T04:36:51;94394.78;;;3.03;75.21
78149;BME280;67396;42.664;23.382;2023-11-18T04:39:17;94388.50;;;2.99;75.43
78149;BME280;67396;42.664;23.382;2023-11-18T04:41:43;94387.50;;;2.91;76.23
78149;BME280;67396;42.664;23.382;2023-11-18T04:44:09;94376.94;;;3.02;75.39
78149;BME280;67396;42.664;23.382;2023-11-18T04:46:38;94381.13;;;2.84;75.88
78149;BME280;67396;42.664;23.382;2023-11-18T04:49:03;94374.13;;;2.83;76.10
78149;BME280;67396;42.664;23.382;2023-11-18T04:51:30;94375.03;;;2.87;75.88
78149;BME280;67396;42.664;23.382;2023-11-18T04:53:55;94380.28;;;2.80;75.61
78149;BME280;67396;42.664;23.382;2023-11-18T04:56:21;94383.84;;;2.68;76.24
78149;BME280;67396;42.664;23.382;2023-11-18T04:58:47;94360.16;;;2.81;75.18
78149;BME280;67396;42.664;23.382;2023-11-18T05:01:14;94376.84;;;2.83;75.04
78149;BME280;67396;42.664;23.382;2023-11-18T05:03:39;94381.41;;;2.79;75.45
78149;BME280;67396;42.664;23.382;2023-11-18T05:06:05;94370.91;;;2.77;76.02
78149;BME280;67396;42.664;23.382;2023-11-18T05:08:31;94385.75;;;2.68;76.61
78149;BME280;67396;42.664;23.382;2023-11-18T05:10:58;94374.47;;;2.65;76.58
78149;BME280;67396;42.664;23.382;2023-11-18T05:13:24;94372.13;;;2.64;76.51
78149;BME280;67396;42.664;23.382;2023-11-18T05:15:51;94378.31;;;2.64;75.32
78149;BME280;67396;42.664;23.382;2023-11-18T05:18:19;94377.63;;;2.68;75.65
78149;BME280;67396;42.664;23.382;2023-11-18T05:20:45;94364.53;;;2.70;76.40
78149;BME280;67396;42.664;23.382;2023-11-18T05:23:11;94381.31;;;2.59;76.18
78149;BME280;67396;42.664;23.382;2023-11-18T05:25:39;94369.00;;;2.62;74.80
78149;BME280;67396;42.664;23.382;2023-11-18T05:28:05;94356.56;;;2.61;74.98
78149;BME280;67396;42.664;23.382;2023-11-18T05:30:35;94361.66;;;2.62;75.52
78149;BME280;67396;42.664;23.382;2023-11-18T05:33:02;94367.31;;;2.57;75.48
78149;BME280;67396;42.664;23.382;2023-11-18T05:35:30;94368.03;;;2.54;74.67
78149;BME280;67396;42.664;23.382;2023-11-18T05:37:57;94356.31;;;2.50;75.71
78149;BME280;67396;42.664;23.382;2023-11-18T05:40:22;94371.66;;;2.46;75.25
78149;BME280;67396;42.664;23.382;2023-11-18T05:42:48;94351.16;;;2.45;75.44
78149;BME280;67396;42.664;23.382;2023-11-18T05:45:17;94348.44;;;2.45;75.66
78149;BME280;67396;42.664;23.382;2023-11-18T05:47:57;94346.88;;;2.44;75.05
78149;BME280;67396;42.664;23.382;2023-11-18T05:50:23;94356.13;;;2.43;75.05
78149;BME280;67396;42.664;23.382;2023-11-18T05:52:53;94358.22;;;2.34;75.40
78149;BME280;67396;42.664;23.382;2023-11-18T05:55:19;94355.22;;;2.39;75.42
78149;BME280;67396;42.664;23.382;2023-11-18T05:57:45;94350.88;;;2.35;75.50
78149;BME280;67396;42.664;23.382;2023-11-18T06:00:14;94356.81;;;2.40;75.42
78149;BME280;67396;42.664;23.382;2023-11-18T06:02:41;94357.53;;;2.37;75.67
78149;BME280;67396;42.664;23.382;2023-11-18T06:05:08;94346.31;;;2.39;76.05
78149;BME280;67396;42.664;23.382;2023-11-18T06:07:33;94332.88;;;2.42;75.25
78149;BME280;67396;42.664;23.382;2023-11-18T06:10:00;94358.38;;;2.41;74.45
78149;BME280;67396;42.664;23.382;2023-11-18T06:12:27;94339.44;;;2.41;75.13
78149;BME280;67396;42.664;23.382;2023-11-18T06:14:52;94362.22;;;2.40;75.78
78149;BME280;67396;42.664;23.382;2023-11-18T06:17:18;94373.78;;;2.37;75.56
78149;BME280;67396;42.664;23.382;2023-11-18T06:19:44;94376.72;;;2.32;76.50
78149;BME280;67396;42.664;23.382;2023-11-18T06:22:10;94381.16;;;2.24;76.48
78149;BME280;67396;42.664;23.382;2023-11-18T06:24:36;94380.91;;;2.30;76.65
78149;BME280;67396;42.664;23.382;2023-11-18T06:27:04;94392.50;;;2.30;77.26
78149;BME280;67396;42.664;23.382;2023-11-18T06:29:30;94396.19;;;2.38;76.39
78149;BME280;67396;42.664;23.382;2023-11-18T06:32:16;94372.81;;;2.45;76.44
78149;BME280;67396;42.664;23.382;2023-11-18T06:34:52;94387.72;;;2.39;76.29
78149;BME280;67396;42.664;23.382;2023-11-18T06:37:19;94385.47;;;2.41;75.95
78149;BME280;67396;42.664;23.382;2023-11-18T06:39:44;94396.97;;;2.38;76.00
78149;BME280;67396;42.664;23.382;2023-11-18T06:42:13;94400.41;;;2.35;76.04
78149;BME280;67396;42.664;23.382;2023-11-18T06:44:39;94388.00;;;2.34;76.20
78149;BME280;67396;42.664;23.382;2023-11-18T06:47:05;94405.56;;;2.40;75.38
78149;BME280;67396;42.664;23.382;2023-11-18T06:49:32;94399.78;;;2.42;74.78
78149;BME280;67396;42.664;23.382;2023-11-18T06:52:02;94392.47;;;2.42;74.10
78149;BME280;67396;42.664;23.382;2023-11-18T06:54:31;94398.31;;;2.44;73.99
78149;BME280;67396;42.664;23.382;2023-11-18T06:56:58;94400.78;;;2.49;74.90
78149;BME280;67396;42.664;23.382;2023-11-18T06:59:23;94402.53;;;2.57;73.46
78149;BME280;67396;42.664;23.382;2023-11-18T07:01:49;94400.16;;;2.56;73.26
78149;BME280;67396;42.664;23.382;2023-11-18T07:04:14;94418.00;;;2.57;72.85
78149;BME280;67396;42.664;23.382;2023-11-18T07:06:40;94411.59;;;2.49;74.07
78149;BME280;67396;42.664;23.382;2023-11-18T07:09:07;94416.56;;;2.47;73.01
78149;BME280;67396;42.664;23.382;2023-11-18T07:11:43;94421.75;;;2.52;73.52
78149;BME280;67396;42.664;23.382;2023-11-18T07:14:09;94435.38;;;2.56;73.02
78149;BME280;67396;42.664;23.382;2023-11-18T07:16:37;94430.59;;;2.65;72.91
78149;BME280;67396;42.664;23.382;2023-11-18T07:19:03;94436.28;;;2.76;71.97
78149;BME280;67396;42.664;23.382;2023-11-18T07:21:29;94436.78;;;2.65;73.03
78149;BME280;67396;42.664;23.382;2023-11-18T07:23:55;94426.84;;;2.54;73.10
78149;BME280;67396;42.664;23.382;2023-11-18T07:26:20;94413.63;;;2.52;72.92
78149;BME280;67396;42.664;23.382;2023-11-18T07:28:45;94426.53;;;2.43;74.09
78149;BME280;67396;42.664;23.382;2023-11-18T07:31:12;94424.28;;;2.45;74.44
78149;BME280;67396;42.664;23.382;2023-11-18T07:33:37;94411.22;;;2.35;74.68
78149;BME280;67396;42.664;23.382;2023-11-18T07:36:03;94418.56;;;2.35;74.80
78149;BME280;67396;42.664;23.382;2023-11-18T07:38:31;94416.38;;;2.40;73.92
78149;BME280;67396;42.664;23.382;2023-11-18T07:40:58;94434.91;;;2.38;73.88
78149;BME280;67396;42.664;23.382;2023-11-18T07:43:23;94430.22;;;2.51;74.03
78149;BME280;67396;42.664;23.382;2023-11-18T07:45:49;94412.56;;;2.57;74.20
78149;BME280;67396;42.664;23.382;2023-11-18T07:48:17;94419.34;;;2.63;73.60
78149;BME280;67396;42.664;23.382;2023-11-18T07:50:43;94422.56;;;2.69;73.87
78149;BME280;67396;42.664;23.382;2023-11-18T07:53:15;94437.06;;;2.60;73.65
78149;BME280;67396;42.664;23.382;2023-11-18T07:55:41;94433.50;;;2.72;73.57
78149;BME280;67396;42.664;23.382;2023-11-18T07:58:10;94417.03;;;2.65;73.79
78149;BME280;67396;42.664;23.382;2023-11-18T08:00:39;94415.91;;;2.66;72.90
78149;BME280;67396;42.664;23.382;2023-11-18T08:03:09;94434.59;;;2.55;72.55
78149;BME280;67396;42.664;23.382;2023-11-18T08:05:41;94428.03;;;2.56;72.38
78149;BME280;67396;42.664;23.382;2023-11-18T08:08:10;94433.81;;;2.55;72.43
78149;BME280;67396;42.664;23.382;2023-11-18T08:10:37;94429.72;;;2.61;73.14
78149;BME280;67396;42.664;23.382;2023-11-18T08:13:07;94436.72;;;2.62;71.88
78149;BME280;67396;42.664;23.382;2023-11-18T08:15:34;94440.78;;;2.56;72.17
78149;BME280;67396;42.664;23.382;2023-11-18T08:18:01;94445.88;;;2.57;72.71
78149;BME280;67396;42.664;23.382;2023-11-18T08:20:26;94435.03;;;2.57;72.30
78149;BME280;67396;42.664;23.382;2023-11-18T08:22:52;94426.22;;;2.60;72.54
78149;BME280;67396;42.664;23.382;2023-11-18T08:25:18;94422.38;;;2.61;72.47
78149;BME280;67396;42.664;23.382;2023-11-18T08:27:44;94431.72;;;2.64;72.30
78149;BME280;67396;42.664;23.382;2023-11-18T08:30:12;94440.91;;;2.59;71.92
78149;BME280;67396;42.664;23.382;2023-11-18T08:32:39;94419.22;;;2.59;72.33
78149;BME280;67396;42.664;23.382;2023-11-18T08:35:08;94429.38;;;2.62;72.13
78149;BME280;67396;42.664;23.382;2023-11-18T08:37:36;94409.69;;;2.65;71.59
78149;BME280;67396;42.664;23.382;2023-11-18T08:40:03;94423.34;;;2.69;71.21
78149;BME280;67396;42.664;23.382;2023-11-18T08:42:29;94416.47;;;2.72;71.12
78149;BME280;67396;42.664;23.382;2023-11-18T08:44:57;94399.50;;;2.75;71.99
78149;BME280;67396;42.664;23.382;2023-11-18T08:47:25;94403.53;;;2.81;70.86
78149;BME280;67396;42.664;23.382;2023-11-18T08:49:50;94428.94;;;2.76;70.88
78149;BME280;67396;42.664;23.382;2023-11-18T08:52:15;94425.09;;;2.77;71.30
78149;BME280;67396;42.664;23.382;2023-11-18T08:54:43;94436.56;;;2.71;70.96
78149;BME280;67396;42.664;23.382;2023-11-18T08:57:29;94431.03;;;2.67;71.46
78149;BME280;67396;42.664;23.382;2023-11-18T09:00:15;94442.81;;;2.59;71.13
78149;BME280;67396;42.664;23.382;2023-11-18T09:02:58;94446.44;;;2.63;71.64
78149;BME280;67396;42.664;23.382;2023-11-18T09:05:27;94445.19;;;2.60;71.80
78149;BME280;67396;42.664;23.382;2023-11-18T09:08:00;94436.94;;;2.57;72.16
78149;BME280;67396;42.664;23.382;2023-11-18T09:10:28;94422.84;;;2.63;72.32
78149;BME280;67396;42.664;23.382;2023-11-18T09:12:54;94418.63;;;2.66;72.49
78149;BME280;67396;42.664;23.382;2023-11-18T09:15:21;94437.25;;;2.68;71.87
78149;BME280;67396;42.664;23.382;2023-11-18T09:17:49;94431.03;;;2.67;71.83
78149;BME280;67396;42.664;23.382;2023-11-18T09:20:15;94431.72;;;2.64;72.25
78149;BME280;67396;42.664;23.382;2023-11-18T09:22:47;94418.53;;;2.62;71.08
78149;BME280;67396;42.664;23.382;2023-11-18T09:25:13;94419.56;;;2.58;71.81
78149;BME280;67396;42.664;23.382;2023-11-18T09:27:39;94421.94;;;2.59;71.44
78149;BME280;67396;42.664;23.382;2023-11-18T09:30:05;94430.50;;;2.61;71.06
78149;BME280;67396;42.664;23.382;2023-11-18T09:32:42;94420.88;;;2.64;71.67
78149;BME280;67396;42.664;23.382;2023-11-18T09:35:11;94401.84;;;2.60;71.45
78149;BME280;67396;42.664;23.382;2023-11-18T09:37:39;94424.38;;;2.64;71.69
78149;BME280;67396;42.664;23.382;2023-11-18T09:40:07;94397.28;;;2.64;71.14
78149;BME280;67396;42.664;23.382;2023-11-18T09:42:39;94407.78;;;2.66;71.09
78149;BME280;67396;42.664;23.382;2023-11-18T09:45:09;94402.81;;;2.68;70.78
78149;BME280;67396;42.664;23.382;2023-11-18T09:47:45;94400.19;;;2.72;71.13
78149;BME280;67396;42.664;23.382;2023-11-18T09:50:17;94400.09;;;2.68;70.42
78149;BME280;67396;42.664;23.382;2023-11-18T09:52:48;94412.63;;;2.73;70.50
78149;BME280;67396;42.664;23.382;2023-11-18T09:55:33;94378.59;;;2.75;70.88
78149;BME280;67396;42.664;23.382;2023-11-18T09:58:09;94390.56;;;2.74;70.40
78149;BME280;67396;42.664;23.382;2023-11-18T10:00:39;94411.72;;;2.69;70.39
78149;BME280;67396;42.664;23.382;2023-11-18T10:03:09;94392.88;;;2.72;71.00
78149;BME280;67396;42.664;23.382;2023-11-18T10:05:40;94400.88;;;2.69;69.98
78149;BME280;67396;42.664;23.382;2023-11-18T10:08:05;94410.84;;;2.64;69.84
78149;BME280;67396;42.664;23.382;2023-11-18T10:10:31;94406.91;;;2.62;69.64
78149;BME280;67396;42.664;23.382;2023-11-18T10:13:03;94410.56;;;2.54;69.95
78149;BME280;67396;42.664;23.382;2023-11-18T10:15:52;94405.50;;;2.52;70.34
78149;BME280;67396;42.664;23.382;2023-11-18T10:18:27;94422.88;;;2.51;70.28
78149;BME280;67396;42.664;23.382;2023-11-18T10:21:00;94423.84;;;2.59;70.32
78149;BME280;67396;42.664;23.382;2023-11-18T10:23:26;94420.81;;;2.60;70.48
78149;BME280;67396;42.664;23.382;2023-11-18T10:25:56;94419.22;;;2.59;70.37
78149;BME280;67396;42.664;23.382;2023-11-18T10:28:27;94412.00;;;2.63;70.25
78149;BME280;67396;42.664;23.382;2023-11-18T10:30:56;94418.03;;;2.73;69.17
78149;BME280;67396;42.664;23.382;2023-11-18T10:33:27;94398.19;;;2.69;69.67
78149;BME280;67396;42.664;23.382;2023-11-18T10:35:59;94395.47;;;2.69;69.56
78149;BME280;67396;42.664;23.382;2023-11-18T10:38:33;94382.09;;;2.76;69.11
78149;BME280;67396;42.664;23.382;2023-11-18T10:41:02;94413.47;;;2.77;68.56
78149;BME280;67396;42.664;23.382;2023-11-18T10:43:28;94397.66;;;2.79;68.10
78149;BME280;67396;42.664;23.382;2023-11-18T10:46:09;94396.78;;;2.75;68.40
78149;BME280;67396;42.664;23.382;2023-11-18T10:48:43;94387.28;;;2.81;68.55
78149;BME280;67396;42.664;23.382;2023-11-18T10:51:10;94378.78;;;2.82;67.92
78149;BME280;67396;42.664;23.382;2023-11-18T10:53:40;94376.69;;;2.76;67.64
78149;BME280;67396;42.664;23.382;2023-11-18T10:56:21;94383.41;;;2.82;69.44
78149;BME280;67396;42.664;23.382;2023-11-18T10:59:07;94365.03;;;2.91;69.24
78149;BME280;67396;42.664;23.382;2023-11-18T11:01:37;94374.06;;;2.95;68.49
78149;BME280;67396;42.664;23.382;2023-11-18T11:04:09;94369.53;;;2.99;68.15
78149;BME280;67396;42.664;23.382;2023-11-18T11:06:43;94366.25;;;3.09;69.36
78149;BME280;67396;42.664;23.382;2023-11-18T11:09:11;94380.41;;;3.18;68.35
78149;BME280;67396;42.664;23.382;2023-11-18T11:11:52;94366.69;;;3.11;68.15
78149;BME280;67396;42.664;23.382;2023-11-18T11:14:21;94371.25;;;3.07;67.74
78149;BME280;67396;42.664;23.382;2023-11-18T11:16:55;94374.94;;;2.99;68.00
78149;BME280;67396;42.664;23.382;2023-11-18T11:19:26;94374.34;;;2.90;67.18
78149;BME280;67396;42.664;23.382;2023-11-18T11:22:04;94383.41;;;2.82;68.66
78149;BME280;67396;42.664;23.382;2023-11-18T11:27:33;94396.19;;;2.81;68.40
78149;BME280;67396;42.664;23.382;2023-11-18T11:30:22;94395.19;;;2.74;68.42
78149;BME280;67396;42.664;23.382;2023-11-18T11:35:40;94359.00;;;2.82;68.43
78149;BME280;67396;42.664;23.382;2023-11-18T11:38:15;94378.06;;;2.85;67.58
78149;BME280;67396;42.664;23.382;2023-11-18T11:40:42;94374.50;;;2.81;68.80
78149;BME280;67396;42.664;23.382;2023-11-18T11:43:09;94404.38;;;2.85;69.34
78149;BME280;67396;42.664;23.382;2023-11-18T11:45:36;94384.72;;;2.88;67.74
78149;BME280;67396;42.664;23.382;2023-11-18T11:48:03;94386.09;;;2.82;69.02
78149;BME280;67396;42.664;23.382;2023-11-18T11:51:11;94389.53;;;2.79;68.99
78149;BME280;67396;42.664;23.382;2023-11-18T11:56:56;94394.97;;;2.79;69.06
78149;BME280;67396;42.664;23.382;2023-11-18T12:02:21;94382.53;;;2.78;68.96
78149;BME280;67396;42.664;23.382;2023-11-18T12:04:53;94392.16;;;2.75;69.65
78149;BME280;67396;42.664;23.382;2023-11-18T12:07:21;94394.06;;;2.90;68.74
78149;BME280;67396;42.664;23.382;2023-11-18T12:09:55;94398.44;;;2.95;68.63
78149;BME280;67396;42.664;23.382;2023-11-18T12:12:23;94400.03;;;2.80;68.09
78149;BME280;67396;42.664;23.382;2023-11-18T12:14:57;94408.84;;;2.77;69.10
78149;BME280;67396;42.664;23.382;2023-11-18T12:17:26;94396.53;;;2.80;69.36
78149;BME280;67396;42.664;23.382;2023-11-18T12:19:57;94405.06;;;2.82;69.47
78149;BME280;67396;42.664;23.382;2023-11-18T12:23:03;94405.88;;;2.82;69.47
78149;BME280;67396;42.664;23.382;2023-11-18T12:25:37;94407.78;;;2.82;68.98
78149;BME280;67396;42.664;23.382;2023-11-18T12:28:08;94419.69;;;2.93;69.00
78149;BME280;67396;42.664;23.382;2023-11-18T12:33:05;94420.66;;;2.85;69.24
78149;BME280;67396;42.664;23.382;2023-11-18T12:40:53;94420.59;;;2.81;69.21
78149;BME280;67396;42.664;23.382;2023-11-18T12:48:49;94411.56;;;2.93;69.27
78149;BME280;67396;42.664;23.382;2023-11-18T12:51:28;94406.69;;;2.98;68.68
78149;BME280;67396;42.664;23.382;2023-11-18T12:54:18;94397.75;;;2.98;68.62
78149;BME280;67396;42.664;23.382;2023-11-18T12:56:45;94398.44;;;2.95;69.03
78149;BME280;67396;42.664;23.382;2023-11-18T12:59:16;94403.78;;;2.91;69.59
78149;BME280;67396;42.664;23.382;2023-11-18T13:01:49;94406.31;;;3.00;69.52
78149;BME280;67396;42.664;23.382;2023-11-18T13:04:29;94397.22;;;3.08;68.46
78149;BME280;67396;42.664;23.382;2023-11-18T13:06:56;94414.44;;;3.00;68.93
78149;BME280;67396;42.664;23.382;2023-11-18T13:09:23;94400.72;;;2.93;68.57
78149;BME280;67396;42.664;23.382;2023-11-18T13:11:54;94415.22;;;3.00;68.39
78149;BME280;67396;42.664;23.382;2023-11-18T13:14:27;94404.66;;;2.95;69.84
78149;BME280;67396;42.664;23.382;2023-11-18T13:16:55;94417.69;;;2.90;69.63
78149;BME280;67396;42.664;23.382;2023-11-18T13:19:28;94417.31;;;2.91;69.91
78149;BME280;67396;42.664;23.382;2023-11-18T13:22:22;94420.75;;;2.88;70.94
78149;BME280;67396;42.664;23.382;2023-11-18T13:25:09;94438.59;;;2.89;71.29
78149;BME280;67396;42.664;23.382;2023-11-18T13:27:52;94432.38;;;2.89;71.46
78149;BME280;67396;42.664;23.382;2023-11-18T13:30:21;94443.47;;;2.84;70.98
78149;BME280;67396;42.664;23.382;2023-11-18T13:33:48;94440.50;;;2.89;71.90
78149;BME280;67396;42.664;23.382;2023-11-18T13:36:37;94452.31;;;2.81;71.70